createdAt,value
2023-04-18T00:02:18.464Z,68.97
2023-04-18T00:12:41.167Z,68.71
2023-04-18T00:23:02.514Z,69.10
2023-04-18T00:33:23.876Z,68.93
2023-04-18T00:43:46.457Z,68.97
2023-04-18T00:54:08.253Z,69.45
2023-04-18T01:04:30.346Z,68.67
2023-04-18T01:14:51.607Z,69.30
2023-04-18T01:25:12.785Z,68.62
2023-04-18T01:35:34.301Z,69.06
2023-04-18T01:45:55.648Z,69.34
2023-04-18T01:56:16.725Z,69.25
2023-04-18T02:06:37.937Z,69.21
2023-04-18T02:17:00.157Z,69.10
2023-04-18T02:27:21.479Z,69.52
2023-04-18T02:37:42.656Z,69.28
2023-04-18T02:48:07.004Z,69.35
2023-04-18T02:58:29.861Z,69.10
2023-04-18T03:09:07.332Z,69.55
2023-04-18T03:19:32.313Z,69.92
2023-04-18T03:30:00.065Z,69.45
2023-04-18T03:40:21.215Z,69.45
2023-04-18T03:50:45.095Z,69.76
2023-04-18T04:01:08.010Z,69.97
2023-04-18T04:11:29.723Z,70.28
2023-04-18T04:21:51.475Z,69.67
2023-04-18T04:32:13.136Z,69.84
2023-04-18T04:42:36.123Z,69.73
2023-04-18T04:53:06.517Z,70.06
2023-04-18T05:03:28.615Z,70.02
2023-04-18T05:13:51.592Z,70.34
2023-04-18T05:24:12.873Z,70.25
2023-04-18T05:34:38.727Z,69.96
2023-04-18T05:45:00.399Z,69.95
2023-04-18T05:55:21.566Z,70.32
2023-04-18T06:05:43.103Z,70.14
2023-04-18T06:16:05.158Z,70.54
2023-04-18T06:26:26.542Z,70.78
2023-04-18T06:36:47.872Z,70.47
2023-04-18T06:47:09.772Z,70.68
2023-04-18T06:57:31.154Z,70.69
2023-04-18T07:07:52.518Z,70.58
2023-04-18T07:18:20.573Z,70.41
2023-04-18T07:28:47.904Z,70.50
2023-04-18T07:39:09.360Z,70.58
2023-04-18T07:49:30.489Z,70.21
2023-04-18T07:59:54.056Z,70.94
2023-04-18T08:10:15.125Z,70.92
2023-04-18T08:20:37.338Z,70.67
2023-04-18T08:30:58.795Z,70.77
2023-04-18T08:41:23.695Z,70.75
2023-04-18T08:51:45.715Z,71.38
2023-04-18T09:02:09.200Z,70.68
2023-04-18T09:12:30.531Z,71.29
2023-04-18T09:22:54.388Z,71.32
2023-04-18T09:33:15.787Z,71.26
2023-04-18T09:43:37.369Z,71.34
2023-04-18T09:53:59.685Z,71.31
2023-04-18T10:04:21.079Z,71.03
2023-04-18T10:14:43.397Z,71.47
2023-04-18T10:25:04.980Z,70.76
2023-04-18T10:35:26.866Z,71.32
2023-04-18T10:46:23.921Z,71.27
2023-04-18T10:56:56.819Z,70.98
2023-04-18T11:07:18.087Z,70.87
2023-04-18T11:17:43.032Z,71.08
2023-04-18T11:28:05.050Z,71.16
2023-04-18T11:38:33.799Z,70.77
2023-04-18T11:48:54.823Z,70.49
2023-04-18T11:59:16.469Z,70.53
2023-04-18T12:09:39.466Z,70.96
2023-04-18T12:20:05.491Z,70.42
2023-04-18T12:30:37.352Z,70.39
2023-04-18T12:41:00.160Z,70.42
2023-04-18T12:51:22.004Z,70.43
2023-04-18T13:01:43.041Z,70.61
2023-04-18T13:12:04.827Z,70.91
2023-04-18T13:22:26.139Z,70.32
2023-04-18T13:32:47.675Z,70.88
2023-04-18T13:43:11.221Z,70.50
2023-04-18T13:53:32.619Z,70.43
2023-04-18T14:03:54.859Z,70.83
2023-04-18T14:14:16.356Z,70.59
2023-04-18T14:24:37.374Z,70.80
2023-04-18T14:34:59.373Z,70.43
2023-04-18T14:45:20.740Z,71.17
2023-04-18T14:55:41.629Z,70.86
2023-04-18T15:06:02.930Z,70.80
2023-04-18T15:16:24.252Z,70.43
2023-04-18T15:26:45.945Z,71.00
2023-04-18T15:37:07.193Z,71.22
2023-04-18T15:47:28.335Z,71.16
2023-04-18T15:57:49.531Z,70.84
2023-04-18T16:08:10.652Z,71.44
2023-04-18T16:18:32.083Z,71.30
2023-04-18T16:28:53.469Z,70.92
2023-04-18T16:39:16.073Z,70.84
2023-04-18T16:49:37.770Z,71.07
2023-04-18T17:00:02.334Z,70.81
2023-04-18T17:10:24.026Z,71.23
2023-04-18T17:20:45.193Z,70.66
2023-04-18T17:31:06.126Z,71.29
2023-04-18T17:41:27.484Z,70.56
2023-04-18T17:51:48.781Z,71.16
2023-04-18T18:02:11.942Z,71.01
2023-04-18T18:12:35.552Z,70.44
2023-04-18T18:22:59.745Z,70.73
2023-04-18T18:33:21.300Z,70.36
2023-04-18T18:43:42.634Z,70.21
2023-04-18T18:54:03.626Z,70.23
2023-04-18T19:04:24.896Z,70.55
2023-04-18T19:14:47.215Z,70.71
2023-04-18T19:25:09.037Z,70.90
2023-04-18T19:35:29.963Z,71.21
2023-04-18T19:45:53.209Z,70.98
2023-04-18T19:56:16.479Z,70.42
2023-04-18T20:06:37.844Z,71.03
2023-04-18T20:17:00.246Z,71.49
2023-04-18T20:27:21.535Z,71.66
2023-04-18T20:37:43.271Z,71.13
2023-04-18T20:48:04.771Z,71.23
2023-04-18T20:58:26.406Z,71.39
2023-04-18T21:08:47.814Z,71.17
2023-04-18T21:19:09.230Z,71.37
2023-04-18T21:29:30.471Z,71.20
2023-04-18T21:39:51.829Z,71.13
2023-04-18T21:50:12.873Z,70.98
2023-04-18T22:00:33.918Z,71.04
2023-04-18T22:10:56.551Z,71.11
2023-04-18T22:21:18.049Z,71.08
2023-04-18T22:31:39.235Z,70.66
2023-04-18T22:42:00.500Z,71.15
2023-04-18T22:52:24.935Z,70.96
2023-04-18T23:02:46.404Z,70.85
2023-04-18T23:13:07.835Z,70.86
2023-04-18T23:23:29.039Z,70.57
2023-04-18T23:33:50.295Z,70.38
2023-04-18T23:44:11.179Z,70.72
2023-04-18T23:54:32.548Z,70.75
